createdAt,value
2023-04-21T00:01:30.094Z,11.60
2023-04-21T00:03:38.298Z,11.59
2023-04-21T00:05:43.693Z,11.57
2023-04-21T00:07:48.478Z,11.56
2023-04-21T00:09:55.922Z,11.55
2023-04-21T00:12:00.677Z,11.54
2023-04-21T00:14:05.646Z,11.54
2023-04-21T00:16:11.130Z,11.52
2023-04-21T00:18:16.444Z,11.51
2023-04-21T00:20:21.322Z,11.50
2023-04-21T00:22:26.051Z,11.51
2023-04-21T00:24:30.864Z,11.52
2023-04-21T00:26:38.151Z,11.54
2023-04-21T00:28:43.102Z,11.56
2023-04-21T00:30:47.872Z,11.56
2023-04-21T00:32:52.804Z,11.57
2023-04-21T00:34:57.615Z,11.58
2023-04-21T00:37:03.011Z,11.59
2023-04-21T00:39:07.758Z,11.62
2023-04-21T00:41:13.778Z,11.65
2023-04-21T00:43:21.260Z,11.65
2023-04-21T00:45:26.021Z,11.67
2023-04-21T00:47:31.367Z,11.68
2023-04-21T00:49:36.295Z,11.69
2023-04-21T00:51:41.032Z,11.72
2023-04-21T00:53:46.003Z,11.72
2023-04-21T00:55:51.000Z,11.73
2023-04-21T00:57:57.936Z,11.75
2023-04-21T01:00:10.937Z,11.75
2023-04-21T01:02:17.872Z,11.76
2023-04-21T01:04:22.888Z,11.75
2023-04-21T01:06:28.553Z,11.75
2023-04-21T01:08:35.636Z,11.75
2023-04-21T01:10:40.347Z,11.74
2023-04-21T01:12:46.500Z,11.74
2023-04-21T01:14:51.361Z,11.72
2023-04-21T01:16:59.317Z,11.70
2023-04-21T01:19:05.411Z,11.68
2023-04-21T01:21:11.383Z,11.65
2023-04-21T01:23:21.255Z,11.62
2023-04-21T01:25:28.490Z,11.61
2023-04-21T01:27:34.289Z,11.61
2023-04-21T01:29:39.198Z,11.62
2023-04-21T01:31:48.295Z,11.61
2023-04-21T01:33:53.123Z,11.60
2023-04-21T01:35:58.393Z,11.61
2023-04-21T01:38:03.387Z,11.61
2023-04-21T01:40:12.483Z,11.60
2023-04-21T01:42:17.308Z,11.59
2023-04-21T01:44:22.218Z,11.60
2023-04-21T01:46:27.117Z,11.60
2023-04-21T01:48:32.026Z,11.60
2023-04-21T01:50:37.318Z,11.60
2023-04-21T01:52:42.118Z,11.60
2023-04-21T01:54:46.855Z,11.60
2023-04-21T01:56:55.150Z,11.59
2023-04-21T01:59:00.067Z,11.58
2023-04-21T02:01:04.890Z,11.58
2023-04-21T02:03:09.739Z,11.57
2023-04-21T02:05:15.956Z,11.53
2023-04-21T02:07:20.741Z,11.49
2023-04-21T02:09:25.528Z,11.46
2023-04-21T02:11:31.992Z,11.44
2023-04-21T02:13:39.362Z,11.41
2023-04-21T02:15:44.423Z,11.39
2023-04-21T02:17:50.801Z,11.37
2023-04-21T02:19:55.587Z,11.33
2023-04-21T02:22:00.443Z,11.32
2023-04-21T02:24:05.140Z,11.31
2023-04-21T02:26:10.556Z,11.32
2023-04-21T02:28:15.511Z,11.31
2023-04-21T02:30:23.393Z,11.31
2023-04-21T02:32:28.248Z,11.31
2023-04-21T02:34:33.152Z,11.33
2023-04-21T02:36:38.110Z,11.35
2023-04-21T02:38:43.011Z,11.37
2023-04-21T02:40:48.437Z,11.38
2023-04-21T02:42:53.219Z,11.39
2023-04-21T02:44:57.944Z,11.40
2023-04-21T02:47:05.441Z,11.41
2023-04-21T02:49:10.411Z,11.41
2023-04-21T02:51:15.940Z,11.42
2023-04-21T02:53:20.686Z,11.41
2023-04-21T02:55:26.004Z,11.43
2023-04-21T02:57:30.747Z,11.42
2023-04-21T02:59:35.560Z,11.42
2023-04-21T03:01:40.413Z,11.43
2023-04-21T03:03:48.985Z,11.40
2023-04-21T03:05:59.502Z,11.38
2023-04-21T03:08:04.464Z,11.38
2023-04-21T03:10:09.912Z,11.35
2023-04-21T03:12:14.683Z,11.35
2023-04-21T03:14:19.444Z,11.33
2023-04-21T03:16:24.465Z,11.31
2023-04-21T03:18:29.195Z,11.28
2023-04-21T03:20:36.631Z,11.25
2023-04-21T03:22:41.922Z,11.22
2023-04-21T03:24:46.769Z,11.20
2023-04-21T03:26:51.836Z,11.17
2023-04-21T03:28:56.577Z,11.16
2023-04-21T03:31:01.752Z,11.15
2023-04-21T03:33:06.538Z,11.15
2023-04-21T03:35:11.581Z,11.13
2023-04-21T03:37:19.131Z,11.11
2023-04-21T03:39:24.138Z,11.11
2023-04-21T03:41:30.393Z,11.11
2023-04-21T03:43:36.417Z,11.12
2023-04-21T03:45:41.242Z,11.12
2023-04-21T03:47:46.033Z,11.10
2023-04-21T03:49:50.939Z,11.12
2023-04-21T03:51:55.870Z,11.13
2023-04-21T03:54:03.590Z,11.13
2023-04-21T03:56:08.984Z,11.13
2023-04-21T03:58:14.518Z,11.12
2023-04-21T04:00:19.868Z,11.11
2023-04-21T04:02:25.183Z,11.10
2023-04-21T04:04:30.544Z,11.09
2023-04-21T04:06:35.951Z,11.09
2023-04-21T04:08:40.660Z,11.08
2023-04-21T04:10:47.998Z,11.08
2023-04-21T04:12:52.717Z,11.06
2023-04-21T04:14:57.552Z,11.03
2023-04-21T04:17:02.424Z,11.00
2023-04-21T04:19:07.263Z,11.00
2023-04-21T04:21:12.141Z,11.00
2023-04-21T04:23:16.849Z,11.00
2023-04-21T04:25:21.638Z,10.98
2023-04-21T04:27:29.692Z,10.96
2023-04-21T04:29:35.121Z,10.94
2023-04-21T04:31:40.003Z,10.92
2023-04-21T04:33:45.510Z,10.91
2023-04-21T04:35:51.361Z,10.90
2023-04-21T04:37:57.113Z,10.89
2023-04-21T04:40:01.906Z,10.88
2023-04-21T04:42:09.624Z,10.87
2023-04-21T04:44:18.360Z,10.83
2023-04-21T04:46:25.026Z,10.82
2023-04-21T04:48:29.827Z,10.80
2023-04-21T04:50:34.669Z,10.78
2023-04-21T04:52:39.497Z,10.77
2023-04-21T04:54:44.308Z,10.76
2023-04-21T04:56:49.218Z,10.76
2023-04-21T04:58:53.937Z,10.72
2023-04-21T05:01:02.046Z,10.71
2023-04-21T05:03:06.943Z,10.71
2023-04-21T05:05:11.901Z,10.72
2023-04-21T05:07:16.817Z,10.72
2023-04-21T05:09:21.846Z,10.75
2023-04-21T05:11:26.607Z,10.76
2023-04-21T05:13:31.770Z,10.76
2023-04-21T05:15:36.537Z,10.76
2023-04-21T05:17:43.983Z,10.78
2023-04-21T05:19:48.863Z,10.77
2023-04-21T05:21:54.487Z,10.76
2023-04-21T05:24:01.198Z,10.73
2023-04-21T05:26:06.046Z,10.71
2023-04-21T05:28:10.766Z,10.70
2023-04-21T05:30:15.658Z,10.67
2023-04-21T05:32:20.725Z,10.64
2023-04-21T05:34:28.217Z,10.62
2023-04-21T05:36:32.986Z,10.61
2023-04-21T05:38:38.307Z,10.62
2023-04-21T05:40:43.058Z,10.60
2023-04-21T05:42:47.844Z,10.60
2023-04-21T05:44:52.812Z,10.60
2023-04-21T05:46:57.586Z,10.61
2023-04-21T05:49:02.444Z,10.64
2023-04-21T05:51:15.647Z,10.67
2023-04-21T05:53:20.430Z,10.71
2023-04-21T05:55:25.487Z,10.74
2023-04-21T05:57:30.333Z,10.75
2023-04-21T05:59:35.109Z,10.77
2023-04-21T06:01:39.927Z,10.80
2023-04-21T06:03:45.015Z,10.81
2023-04-21T06:05:49.922Z,10.86
2023-04-21T06:07:57.465Z,10.87
2023-04-21T06:10:02.202Z,10.90
2023-04-21T06:12:07.513Z,10.93
2023-04-21T06:14:12.253Z,10.95
2023-04-21T06:16:17.043Z,10.99
2023-04-21T06:18:21.751Z,11.00
2023-04-21T06:20:27.289Z,11.04
2023-04-21T06:22:33.216Z,11.06
2023-04-21T06:24:40.638Z,11.08
2023-04-21T06:26:45.498Z,11.13
2023-04-21T06:28:50.222Z,11.17
2023-04-21T06:30:54.923Z,11.20
2023-04-21T06:32:59.757Z,11.23
2023-04-21T06:35:04.695Z,11.26
2023-04-21T06:37:09.601Z,11.30
2023-04-21T06:39:14.330Z,11.34
2023-04-21T06:41:23.594Z,11.38
2023-04-21T06:43:29.482Z,11.43
2023-04-21T06:45:34.285Z,11.48
2023-04-21T06:47:39.261Z,11.53
2023-04-21T06:49:44.274Z,11.59
2023-04-21T06:51:49.173Z,11.64
2023-04-21T06:53:53.893Z,11.69
2023-04-21T06:55:58.640Z,11.74
2023-04-21T06:58:06.291Z,11.77
2023-04-21T07:00:12.635Z,11.83
2023-04-21T07:02:17.429Z,11.88
2023-04-21T07:04:22.284Z,11.93
2023-04-21T07:06:27.134Z,11.99
2023-04-21T07:08:31.839Z,12.04
2023-04-21T07:10:36.671Z,12.11
2023-04-21T07:12:41.545Z,12.16
2023-04-21T07:14:48.916Z,12.21
2023-04-21T07:16:55.214Z,12.27
2023-04-21T07:19:00.175Z,12.32
2023-04-21T07:21:04.994Z,12.39
2023-04-21T07:23:09.843Z,12.45
2023-04-21T07:25:14.713Z,12.51
2023-04-21T07:27:20.391Z,12.57
2023-04-21T07:29:25.309Z,12.63
2023-04-21T07:31:32.915Z,12.69
2023-04-21T07:33:38.244Z,12.75
2023-04-21T07:35:45.553Z,12.81
2023-04-21T07:37:50.589Z,12.89
2023-04-21T07:39:55.398Z,12.96
2023-04-21T07:42:00.110Z,13.03
2023-04-21T07:44:04.843Z,13.07
2023-04-21T07:46:09.917Z,13.11
2023-04-21T07:48:17.367Z,13.14
2023-04-21T07:50:22.256Z,13.17
2023-04-21T07:52:27.167Z,13.20
2023-04-21T07:54:32.327Z,13.24
2023-04-21T07:56:37.167Z,13.28
2023-04-21T07:58:41.886Z,13.32
2023-04-21T08:00:47.065Z,13.37
2023-04-21T08:02:52.207Z,13.41
2023-04-21T08:04:59.789Z,13.44
2023-04-21T08:07:04.786Z,13.49
2023-04-21T08:09:09.830Z,13.55
2023-04-21T08:11:14.539Z,13.60
2023-04-21T08:13:21.223Z,13.66
2023-04-21T08:15:26.239Z,13.70
2023-04-21T08:17:31.186Z,13.74
2023-04-21T08:19:35.965Z,13.79
2023-04-21T08:21:43.390Z,13.86
2023-04-21T08:23:48.305Z,13.92
2023-04-21T08:25:53.178Z,14.00
2023-04-21T08:27:58.105Z,14.09
2023-04-21T08:30:02.994Z,14.17
2023-04-21T08:32:08.125Z,14.25
2023-04-21T08:34:12.958Z,14.32
2023-04-21T08:36:28.486Z,14.39
2023-04-21T08:38:37.276Z,14.47
2023-04-21T08:40:42.716Z,14.57
2023-04-21T08:42:48.204Z,14.66
2023-04-21T08:44:52.965Z,14.75
2023-04-21T08:46:59.831Z,14.84
2023-04-21T08:49:05.187Z,14.94
2023-04-21T08:51:12.524Z,15.04
2023-04-21T08:53:17.494Z,15.13
2023-04-21T08:55:29.610Z,15.23
2023-04-21T08:57:34.399Z,15.32
2023-04-21T08:59:39.121Z,15.44
2023-04-21T09:02:12.667Z,15.56
2023-04-21T09:04:20.650Z,15.59
2023-04-21T09:06:25.517Z,15.72
2023-04-21T09:08:31.002Z,15.85
2023-04-21T09:10:46.554Z,15.96
2023-04-21T09:12:54.219Z,16.09
2023-04-21T09:15:01.225Z,16.19
2023-04-21T09:17:07.334Z,16.30
2023-04-21T09:19:17.623Z,16.42
2023-04-21T09:21:23.407Z,16.52
2023-04-21T09:23:28.132Z,16.62
2023-04-21T09:25:35.333Z,16.75
2023-04-21T09:27:44.662Z,16.88
2023-04-21T09:29:51.107Z,17.02
2023-04-21T09:31:56.158Z,17.15
2023-04-21T09:34:01.759Z,17.28
2023-04-21T09:36:08.853Z,17.40
2023-04-21T09:38:15.677Z,17.53
2023-04-21T09:40:21.943Z,17.65
2023-04-21T09:42:32.053Z,17.72
2023-04-21T09:44:50.598Z,17.83
2023-04-21T09:47:04.596Z,17.91
2023-04-21T09:49:09.406Z,17.99
2023-04-21T09:51:32.330Z,18.06
2023-04-21T09:53:42.234Z,18.16
2023-04-21T09:55:52.132Z,18.24
2023-04-21T09:58:01.696Z,18.33
2023-04-21T10:00:12.227Z,18.43
2023-04-21T10:02:17.459Z,18.53
2023-04-21T10:04:24.198Z,18.64
2023-04-21T10:06:29.376Z,18.75
2023-04-21T10:08:34.814Z,18.86
2023-04-21T10:10:39.896Z,18.96
2023-04-21T10:12:44.809Z,19.09
2023-04-21T10:14:53.538Z,19.21
2023-04-21T10:17:07.528Z,19.33
2023-04-21T10:19:27.286Z,19.45
2023-04-21T10:21:32.091Z,19.57
2023-04-21T10:23:41.102Z,19.66
2023-04-21T10:25:45.918Z,19.77
2023-04-21T10:27:50.876Z,19.86
2023-04-21T10:29:57.131Z,19.94
2023-04-21T10:32:08.556Z,20.02
2023-04-21T10:34:24.055Z,20.11
2023-04-21T10:36:29.003Z,20.18
2023-04-21T10:38:37.547Z,20.25
2023-04-21T10:40:44.624Z,20.34
2023-04-21T10:42:49.588Z,20.43
2023-04-21T10:44:56.701Z,20.53
2023-04-21T10:47:04.419Z,20.61
2023-04-21T10:49:10.908Z,20.71
2023-04-21T10:51:15.778Z,20.77
2023-04-21T10:53:20.574Z,20.79
2023-04-21T10:55:28.334Z,20.82
2023-04-21T10:57:36.858Z,20.84
2023-04-21T10:59:42.495Z,20.87
2023-04-21T11:01:47.943Z,20.91
2023-04-21T11:03:58.516Z,20.88
2023-04-21T11:06:05.869Z,20.85
2023-04-21T11:08:13.160Z,20.83
2023-04-21T11:10:17.929Z,20.82
2023-04-21T11:12:22.724Z,20.80
2023-04-21T11:14:27.576Z,20.77
2023-04-21T11:16:32.577Z,20.73
2023-04-21T11:18:42.156Z,20.69
2023-04-21T11:20:49.705Z,20.68
2023-04-21T11:22:56.066Z,20.70
2023-04-21T11:25:01.984Z,20.73
2023-04-21T11:27:12.560Z,20.73
2023-04-21T11:29:17.550Z,20.74
2023-04-21T11:31:22.441Z,20.76
2023-04-21T11:33:27.293Z,20.79
2023-04-21T11:35:32.169Z,20.81
2023-04-21T11:37:39.914Z,20.85
2023-04-21T11:39:44.884Z,20.91
2023-04-21T11:41:51.495Z,20.96
2023-04-21T11:43:56.356Z,20.99
2023-04-21T11:46:14.623Z,21.00
2023-04-21T11:48:20.126Z,21.02
2023-04-21T11:50:37.248Z,21.04
2023-04-21T11:52:45.664Z,21.08
2023-04-21T11:54:50.693Z,21.09
2023-04-21T11:56:57.464Z,21.14
2023-04-21T11:59:02.596Z,21.17
2023-04-21T12:01:11.014Z,21.17
2023-04-21T12:03:16.729Z,21.20
2023-04-21T12:05:21.700Z,21.21
2023-04-21T12:07:27.008Z,21.22
2023-04-21T12:09:34.322Z,21.24
2023-04-21T12:11:39.269Z,21.27
2023-04-21T12:13:44.204Z,21.30
2023-04-21T12:15:49.271Z,21.33
2023-04-21T12:17:55.583Z,21.36
2023-04-21T12:20:08.589Z,21.37
2023-04-21T12:22:13.683Z,21.30
2023-04-21T12:24:18.386Z,21.29
2023-04-21T12:26:26.639Z,21.31
2023-04-21T12:28:32.871Z,21.29
2023-04-21T12:30:40.115Z,21.27
2023-04-21T12:32:47.847Z,21.28
2023-04-21T12:34:52.760Z,21.28
2023-04-21T12:36:57.594Z,21.28
2023-04-21T12:39:02.324Z,21.31
2023-04-21T12:41:07.830Z,21.35
2023-04-21T12:43:15.936Z,21.37
2023-04-21T12:45:20.865Z,21.38
2023-04-21T12:47:26.100Z,21.36
2023-04-21T12:49:31.204Z,21.33
2023-04-21T12:51:36.582Z,21.31
2023-04-21T12:53:41.420Z,21.27
2023-04-21T12:55:56.852Z,21.25
2023-04-21T12:58:09.110Z,21.22
2023-04-21T13:00:17.672Z,21.20
2023-04-21T13:02:22.920Z,21.17
2023-04-21T13:04:28.016Z,21.13
2023-04-21T13:06:33.332Z,21.09
2023-04-21T13:08:38.271Z,21.05
2023-04-21T13:10:43.362Z,21.00
2023-04-21T13:12:48.200Z,20.94
2023-04-21T13:14:53.166Z,20.90
2023-04-21T13:17:00.640Z,20.86
2023-04-21T13:19:05.739Z,20.84
2023-04-21T13:21:10.930Z,20.81
2023-04-21T13:23:16.340Z,20.79
2023-04-21T13:25:21.319Z,20.77
2023-04-21T13:27:26.469Z,20.73
2023-04-21T13:29:34.303Z,20.70
2023-04-21T13:31:39.156Z,20.68
2023-04-21T13:33:46.699Z,20.66
2023-04-21T13:35:52.396Z,20.64
2023-04-21T13:37:57.394Z,20.61
2023-04-21T13:40:02.271Z,20.60
2023-04-21T13:42:07.213Z,20.55
2023-04-21T13:44:12.194Z,20.53
2023-04-21T13:46:17.438Z,20.52
2023-04-21T13:48:24.511Z,20.50
2023-04-21T13:50:31.896Z,20.46
2023-04-21T13:52:36.962Z,20.43
2023-04-21T13:54:41.771Z,20.39
2023-04-21T13:56:46.661Z,20.36
2023-04-21T13:58:51.696Z,20.34
2023-04-21T14:00:56.621Z,20.33
2023-04-21T14:03:01.674Z,20.31
2023-04-21T14:05:07.346Z,20.30
2023-04-21T14:07:16.007Z,20.28
2023-04-21T14:09:21.415Z,20.26
2023-04-21T14:11:26.242Z,20.24
2023-04-21T14:13:39.600Z,20.23
2023-04-21T14:15:49.664Z,20.22
2023-04-21T14:17:56.684Z,20.21
2023-04-21T14:20:01.883Z,20.20
2023-04-21T14:22:07.102Z,20.19
2023-04-21T14:24:14.864Z,20.17
2023-04-21T14:26:19.905Z,20.17
2023-04-21T14:28:24.732Z,20.16
2023-04-21T14:30:29.714Z,20.15
2023-04-21T14:32:34.505Z,20.15
2023-04-21T14:34:39.624Z,20.15
2023-04-21T14:36:44.542Z,20.15
2023-04-21T14:38:49.719Z,20.14
2023-04-21T14:40:57.210Z,20.15
2023-04-21T14:43:02.250Z,20.14
2023-04-21T14:45:08.016Z,20.15
2023-04-21T14:47:13.037Z,20.14
2023-04-21T14:49:18.357Z,20.13
2023-04-21T14:51:23.187Z,20.14
2023-04-21T14:53:28.341Z,20.13
2023-04-21T14:55:33.173Z,20.14
2023-04-21T14:57:40.603Z,20.13
2023-04-21T14:59:47.005Z,20.13
2023-04-21T15:01:52.101Z,20.14
2023-04-21T15:03:57.938Z,20.14
2023-04-21T15:06:02.922Z,20.14
2023-04-21T15:08:09.113Z,20.14
2023-04-21T15:10:14.999Z,20.14
2023-04-21T15:12:19.968Z,20.13
2023-04-21T15:14:27.589Z,20.13
2023-04-21T15:16:32.963Z,20.13
2023-04-21T15:18:37.825Z,20.12
2023-04-21T15:20:45.634Z,20.13
2023-04-21T15:22:50.800Z,20.12
2023-04-21T15:24:55.654Z,20.12
2023-04-21T15:27:01.847Z,20.12
2023-04-21T15:29:06.893Z,20.11
2023-04-21T15:31:14.817Z,20.11
2023-04-21T15:33:19.890Z,20.11
2023-04-21T15:35:24.943Z,20.12
2023-04-21T15:37:30.420Z,20.13
2023-04-21T15:39:35.369Z,20.13
2023-04-21T15:41:40.650Z,20.14
2023-04-21T15:43:45.492Z,20.15
2023-04-21T15:45:50.966Z,20.14
2023-04-21T15:47:58.633Z,20.14
2023-04-21T15:50:04.673Z,20.15
2023-04-21T15:52:09.813Z,20.16
2023-04-21T15:54:14.703Z,20.17
2023-04-21T15:56:19.883Z,20.17
2023-04-21T15:58:24.772Z,20.17
2023-04-21T16:00:29.840Z,20.17
2023-04-21T16:02:35.278Z,20.18
2023-04-21T16:04:43.410Z,20.16
2023-04-21T16:06:49.127Z,20.17
2023-04-21T16:08:54.010Z,20.17
2023-04-21T16:10:59.413Z,20.19
2023-04-21T16:13:04.435Z,20.18
2023-04-21T16:15:23.631Z,20.18
2023-04-21T16:17:29.509Z,20.17
2023-04-21T16:19:34.549Z,20.17
2023-04-21T16:21:42.592Z,20.15
2023-04-21T16:23:47.499Z,20.15
2023-04-21T16:25:52.605Z,20.15
2023-04-21T16:27:57.453Z,20.17
2023-04-21T16:30:02.242Z,20.17
2023-04-21T16:32:07.174Z,20.16
2023-04-21T16:34:13.953Z,20.16
2023-04-21T16:36:20.397Z,20.15
2023-04-21T16:38:27.996Z,20.15
2023-04-21T16:40:32.807Z,20.15
2023-04-21T16:42:37.956Z,20.14
2023-04-21T16:44:42.723Z,20.14
2023-04-21T16:46:47.994Z,20.14
2023-04-21T16:48:53.079Z,20.12
2023-04-21T16:50:58.129Z,20.13
2023-04-21T16:53:03.030Z,20.12
2023-04-21T16:55:11.465Z,20.11
2023-04-21T16:57:16.425Z,20.11
2023-04-21T16:59:21.747Z,20.10
2023-04-21T17:01:26.593Z,20.10
2023-04-21T17:03:32.014Z,20.10
2023-04-21T17:05:39.668Z,20.09
2023-04-21T17:07:45.235Z,20.10
2023-04-21T17:09:50.739Z,20.10
2023-04-21T17:11:58.127Z,20.10
2023-04-21T17:14:02.886Z,20.09
2023-04-21T17:16:08.104Z,20.09
2023-04-21T17:18:13.869Z,20.09
2023-04-21T17:20:18.781Z,20.09
2023-04-21T17:22:23.737Z,20.09
2023-04-21T17:24:38.083Z,20.08
2023-04-21T17:26:50.241Z,20.05
2023-04-21T17:28:57.656Z,20.04
2023-04-21T17:31:14.507Z,20.05
2023-04-21T17:33:20.700Z,20.02
2023-04-21T17:35:25.510Z,20.02
2023-04-21T17:37:30.902Z,20.03
2023-04-21T17:39:35.711Z,20.02
2023-04-21T17:41:42.065Z,20.01
2023-04-21T17:43:46.810Z,20.01
2023-04-21T17:45:54.451Z,19.99
2023-04-21T17:47:59.550Z,19.98
2023-04-21T17:50:04.807Z,19.96
2023-04-21T17:52:09.920Z,19.96
2023-04-21T17:54:14.676Z,19.95
2023-04-21T17:56:19.752Z,19.95
2023-04-21T17:58:24.506Z,19.93
2023-04-21T18:00:29.707Z,19.93
2023-04-21T18:02:37.276Z,19.91
2023-04-21T18:04:42.869Z,19.90
2023-04-21T18:06:48.653Z,19.88
2023-04-21T18:08:53.533Z,19.86
2023-04-21T18:10:58.635Z,19.86
2023-04-21T18:13:03.636Z,19.86
2023-04-21T18:15:09.791Z,19.84
2023-04-21T18:17:16.810Z,19.82
2023-04-21T18:19:24.991Z,19.81
2023-04-21T18:21:30.334Z,19.80
2023-04-21T18:23:35.141Z,19.79
2023-04-21T18:25:43.018Z,19.77
2023-04-21T18:27:48.215Z,19.75
2023-04-21T18:29:53.476Z,19.75
2023-04-21T18:31:58.420Z,19.74
2023-04-21T18:34:03.315Z,19.73
2023-04-21T18:36:11.236Z,19.69
2023-04-21T18:38:16.149Z,19.69
2023-04-21T18:40:21.301Z,19.68
2023-04-21T18:42:26.369Z,19.67
2023-04-21T18:44:31.237Z,19.64
2023-04-21T18:46:36.188Z,19.62
2023-04-21T18:48:41.172Z,19.60
2023-04-21T18:50:47.005Z,19.58
2023-04-21T18:52:54.424Z,19.56
2023-04-21T18:55:02.773Z,19.52
2023-04-21T18:57:08.459Z,19.50
2023-04-21T18:59:13.394Z,19.47
2023-04-21T19:01:18.240Z,19.45
2023-04-21T19:03:25.390Z,19.42
2023-04-21T19:05:31.620Z,19.39
2023-04-21T19:07:38.415Z,19.36
2023-04-21T19:09:45.933Z,19.32
2023-04-21T19:11:51.945Z,19.31
2023-04-21T19:13:56.882Z,19.28
2023-04-21T19:16:01.699Z,19.24
2023-04-21T19:18:07.706Z,19.22
2023-04-21T19:20:14.039Z,19.19
2023-04-21T19:22:20.137Z,19.16
2023-04-21T19:24:25.522Z,19.13
2023-04-21T19:26:33.011Z,19.10
2023-04-21T19:28:38.421Z,19.06
2023-04-21T19:30:43.223Z,19.04
2023-04-21T19:32:48.029Z,18.98
2023-04-21T19:34:52.828Z,18.96
2023-04-21T19:36:57.757Z,18.91
2023-04-21T19:39:03.037Z,18.88
2023-04-21T19:41:07.804Z,18.85
2023-04-21T19:43:15.475Z,18.82
2023-04-21T19:45:20.239Z,18.80
2023-04-21T19:47:25.008Z,18.77
2023-04-21T19:49:29.831Z,18.74
2023-04-21T19:51:34.848Z,18.71
2023-04-21T19:53:39.847Z,18.70
2023-04-21T19:55:44.718Z,18.66
2023-04-21T19:57:49.497Z,18.63
2023-04-21T19:59:56.813Z,18.58
2023-04-21T20:02:01.835Z,18.56
2023-04-21T20:04:07.400Z,18.52
2023-04-21T20:06:14.283Z,18.47
2023-04-21T20:08:19.109Z,18.43
2023-04-21T20:10:23.936Z,18.39
2023-04-21T20:12:28.670Z,18.35
2023-04-21T20:14:33.525Z,18.32
2023-04-21T20:16:41.267Z,18.29
2023-04-21T20:18:46.244Z,18.27
2023-04-21T20:20:51.071Z,18.25
2023-04-21T20:22:55.921Z,18.23
2023-04-21T20:25:01.083Z,18.20
2023-04-21T20:27:08.644Z,18.18
2023-04-21T20:29:13.963Z,18.16
2023-04-21T20:31:19.201Z,18.13
2023-04-21T20:33:26.571Z,18.10
2023-04-21T20:35:33.603Z,18.06
2023-04-21T20:37:38.342Z,18.05
2023-04-21T20:39:43.147Z,18.01
2023-04-21T20:41:55.406Z,17.98
2023-04-21T20:44:12.902Z,17.94
2023-04-21T20:46:18.131Z,17.93
2023-04-21T20:48:22.932Z,17.92
2023-04-21T20:50:30.338Z,17.90
2023-04-21T20:52:35.220Z,17.90
2023-04-21T20:54:40.226Z,17.89
2023-04-21T20:56:45.223Z,17.89
2023-04-21T20:58:50.225Z,17.88
2023-04-21T21:00:55.082Z,17.86
2023-04-21T21:02:59.978Z,17.82
2023-04-21T21:05:04.944Z,17.77
2023-04-21T21:07:12.340Z,17.71
2023-04-21T21:09:19.169Z,17.70
2023-04-21T21:11:24.062Z,17.69
2023-04-21T21:13:28.850Z,17.69
2023-04-21T21:15:34.135Z,17.70
2023-04-21T21:17:39.356Z,17.67
2023-04-21T21:19:44.152Z,17.68
2023-04-21T21:21:48.892Z,17.66
2023-04-21T21:23:56.265Z,17.62
2023-04-21T21:26:01.631Z,17.60
2023-04-21T21:28:06.740Z,17.58
2023-04-21T21:30:12.960Z,17.58
2023-04-21T21:32:18.049Z,17.59
2023-04-21T21:34:23.004Z,17.60
2023-04-21T21:36:28.142Z,17.63
2023-04-21T21:38:33.324Z,17.66
2023-04-21T21:40:40.730Z,17.67
2023-04-21T21:42:45.697Z,17.67
2023-04-21T21:44:50.660Z,17.69
2023-04-21T21:46:55.501Z,17.68
2023-04-21T21:49:00.258Z,17.67
2023-04-21T21:51:05.554Z,17.65
2023-04-21T21:53:11.086Z,17.63
2023-04-21T21:55:15.866Z,17.63
2023-04-21T21:57:23.224Z,17.60
2023-04-21T21:59:28.549Z,17.60
2023-04-21T22:01:33.396Z,17.58
2023-04-21T22:03:38.929Z,17.55
2023-04-21T22:05:43.906Z,17.55
2023-04-21T22:07:49.235Z,17.54
2023-04-21T22:09:54.004Z,17.52
2023-04-21T22:11:58.745Z,17.50
2023-04-21T22:14:21.073Z,17.47
2023-04-21T22:16:28.701Z,17.41
2023-04-21T22:18:33.498Z,17.39
2023-04-21T22:20:38.689Z,17.35
2023-04-21T22:22:43.714Z,17.32
2023-04-21T22:24:48.783Z,17.28
2023-04-21T22:26:53.586Z,17.25
2023-04-21T22:28:58.307Z,17.22
2023-04-21T22:31:05.686Z,17.19
2023-04-21T22:33:10.775Z,17.14
2023-04-21T22:35:15.842Z,17.11
2023-04-21T22:37:20.648Z,17.07
2023-04-21T22:39:25.896Z,17.04
2023-04-21T22:41:30.752Z,17.02
2023-04-21T22:43:36.158Z,16.99
2023-04-21T22:45:43.044Z,16.96
2023-04-21T22:47:50.996Z,16.91
2023-04-21T22:49:56.051Z,16.88
2023-04-21T22:52:00.859Z,16.86
2023-04-21T22:54:06.033Z,16.82
2023-04-21T22:56:10.760Z,16.79
2023-04-21T22:58:15.787Z,16.79
2023-04-21T23:00:20.804Z,16.78
2023-04-21T23:02:25.727Z,16.75
2023-04-21T23:04:33.244Z,16.73
2023-04-21T23:06:38.054Z,16.72
2023-04-21T23:08:42.788Z,16.69
2023-04-21T23:10:47.669Z,16.67
2023-04-21T23:12:52.437Z,16.64
2023-04-21T23:14:57.255Z,16.62
2023-04-21T23:17:01.991Z,16.61
2023-04-21T23:19:06.799Z,16.57
2023-04-21T23:21:14.408Z,16.57
2023-04-21T23:23:19.428Z,16.56
2023-04-21T23:25:24.290Z,16.54
2023-04-21T23:27:29.073Z,16.53
2023-04-21T23:29:34.040Z,16.50
2023-04-21T23:31:38.978Z,16.49
2023-04-21T23:33:43.757Z,16.46
2023-04-21T23:35:48.535Z,16.45
2023-04-21T23:37:55.864Z,16.44
2023-04-21T23:40:01.117Z,16.43
2023-04-21T23:42:05.990Z,16.41
2023-04-21T23:44:11.188Z,16.42
2023-04-21T23:46:15.949Z,16.40
2023-04-21T23:48:20.845Z,16.38
2023-04-21T23:50:25.854Z,16.35
2023-04-21T23:52:31.570Z,16.32
2023-04-21T23:54:39.147Z,16.27
2023-04-21T23:56:43.910Z,16.25
2023-04-21T23:58:48.619Z,16.22
